sensor_id;sensor_type;location;lat;lon;timestamp;P1;durP1;ratioP1;P2;durP2;ratioP2
28335;SDS011;15592;53.656;7.276;2023-07-09T00:00:46;3.67;;;3.38;;
28335;SDS011;15592;53.656;7.276;2023-07-09T00:03:13;4.10;;;3.70;;
28335;SDS011;15592;53.656;7.276;2023-07-09T00:05:39;5.43;;;4.22;;
28335;SDS011;15592;53.656;7.276;2023-07-09T00:08:05;4.00;;;3.60;;
28335;SDS011;15592;53.656;7.276;2023-07-09T00:10:31;4.43;;;3.90;;
28335;SDS011;15592;53.656;7.276;2023-07-09T00:12:56;4.43;;;4.03;;
28335;SDS011;15592;53.656;7.276;2023-07-09T00:15:22;4.70;;;4.28;;
28335;SDS011;15592;53.656;7.276;2023-07-09T00:17:50;4.65;;;4.25;;
28335;SDS011;15592;53.656;7.276;2023-07-09T00:20:17;4.82;;;4.35;;
28335;SDS011;15592;53.656;7.276;2023-07-09T00:22:43;5.13;;;4.38;;
28335;SDS011;15592;53.656;7.276;2023-07-09T00:25:17;4.65;;;4.25;;
28335;SDS011;15592;53.656;7.276;2023-07-09T00:27:44;4.50;;;4.10;;
28335;SDS011;15592;53.656;7.276;2023-07-09T00:30:17;4.15;;;3.78;;
28335;SDS011;15592;53.656;7.276;2023-07-09T00:32:47;4.65;;;4.20;;
28335;SDS011;15592;53.656;7.276;2023-07-09T00:35:18;4.43;;;4.03;;
28335;SDS011;15592;53.656;7.276;2023-07-09T00:37:44;4.32;;;3.92;;
28335;SDS011;15592;53.656;7.276;2023-07-09T00:40:17;4.00;;;3.63;;
28335;SDS011;15592;53.656;7.276;2023-07-09T00:42:47;4.13;;;3.72;;
28335;SDS011;15592;53.656;7.276;2023-07-09T00:45:22;4.05;;;3.65;;
28335;SDS011;15592;53.656;7.276;2023-07-09T00:48:00;3.90;;;3.60;;
28335;SDS011;15592;53.656;7.276;2023-07-09T00:50:33;4.32;;;3.92;;
28335;SDS011;15592;53.656;7.276;2023-07-09T00:53:03;3.60;;;3.30;;
28335;SDS011;15592;53.656;7.276;2023-07-09T00:55:36;3.80;;;3.50;;
28335;SDS011;15592;53.656;7.276;2023-07-09T00:58:06;4.30;;;3.67;;
28335;SDS011;15592;53.656;7.276;2023-07-09T01:03:12;3.47;;;3.17;;
28335;SDS011;15592;53.656;7.276;2023-07-09T01:05:54;3.90;;;3.47;;
28335;SDS011;15592;53.656;7.276;2023-07-09T01:08:23;3.78;;;3.47;;
28335;SDS011;15592;53.656;7.276;2023-07-09T01:10:49;4.07;;;3.67;;
28335;SDS011;15592;53.656;7.276;2023-07-09T01:13:15;3.50;;;3.20;;
28335;SDS011;15592;53.656;7.276;2023-07-09T01:15:44;3.40;;;3.08;;
28335;SDS011;15592;53.656;7.276;2023-07-09T01:18:11;3.33;;;3.03;;
28335;SDS011;15592;53.656;7.276;2023-07-09T01:20:39;3.53;;;3.22;;
28335;SDS011;15592;53.656;7.276;2023-07-09T01:23:05;3.30;;;3.00;;
28335;SDS011;15592;53.656;7.276;2023-07-09T01:25:32;3.50;;;3.20;;
28335;SDS011;15592;53.656;7.276;2023-07-09T01:27:59;3.55;;;3.25;;
28335;SDS011;15592;53.656;7.276;2023-07-09T01:33:01;3.70;;;3.30;;
28335;SDS011;15592;53.656;7.276;2023-07-09T01:35:28;3.50;;;3.08;;
28335;SDS011;15592;53.656;7.276;2023-07-09T01:37:56;3.40;;;3.10;;
28335;SDS011;15592;53.656;7.276;2023-07-09T01:40:22;3.92;;;3.53;;
28335;SDS011;15592;53.656;7.276;2023-07-09T01:42:50;4.30;;;3.90;;
28335;SDS011;15592;53.656;7.276;2023-07-09T01:45:16;3.40;;;3.10;;
28335;SDS011;15592;53.656;7.276;2023-07-09T01:47:45;4.40;;;4.00;;
28335;SDS011;15592;53.656;7.276;2023-07-09T01:50:11;4.50;;;4.10;;
28335;SDS011;15592;53.656;7.276;2023-07-09T01:52:37;5.32;;;3.70;;
28335;SDS011;15592;53.656;7.276;2023-07-09T01:55:06;4.35;;;3.95;;
28335;SDS011;15592;53.656;7.276;2023-07-09T01:57:34;4.22;;;3.83;;
28335;SDS011;15592;53.656;7.276;2023-07-09T02:00:03;4.47;;;4.07;;
28335;SDS011;15592;53.656;7.276;2023-07-09T02:02:34;4.93;;;4.40;;
28335;SDS011;15592;53.656;7.276;2023-07-09T02:05:01;4.68;;;4.28;;
28335;SDS011;15592;53.656;7.276;2023-07-09T02:07:26;6.05;;;5.28;;
28335;SDS011;15592;53.656;7.276;2023-07-09T02:09:52;5.72;;;5.00;;
28335;SDS011;15592;53.656;7.276;2023-07-09T02:12:18;5.38;;;4.88;;
28335;SDS011;15592;53.656;7.276;2023-07-09T02:14:44;5.60;;;4.85;;
28335;SDS011;15592;53.656;7.276;2023-07-09T02:17:11;5.22;;;4.72;;
28335;SDS011;15592;53.656;7.276;2023-07-09T02:19:38;5.30;;;4.70;;
28335;SDS011;15592;53.656;7.276;2023-07-09T02:22:05;5.28;;;4.53;;
28335;SDS011;15592;53.656;7.276;2023-07-09T02:24:32;5.35;;;4.82;;
28335;SDS011;15592;53.656;7.276;2023-07-09T02:26:58;5.65;;;5.05;;
28335;SDS011;15592;53.656;7.276;2023-07-09T02:29:27;5.50;;;5.00;;
28335;SDS011;15592;53.656;7.276;2023-07-09T02:31:55;5.03;;;4.53;;
28335;SDS011;15592;53.656;7.276;2023-07-09T02:34:22;4.80;;;4.35;;
28335;SDS011;15592;53.656;7.276;2023-07-09T02:36:50;5.18;;;4.40;;
28335;SDS011;15592;53.656;7.276;2023-07-09T02:39:17;7.10;;;5.05;;
28335;SDS011;15592;53.656;7.276;2023-07-09T02:41:43;5.40;;;4.57;;
28335;SDS011;15592;53.656;7.276;2023-07-09T02:44:08;5.75;;;4.90;;
28335;SDS011;15592;53.656;7.276;2023-07-09T02:46:34;5.65;;;5.07;;
28335;SDS011;15592;53.656;7.276;2023-07-09T02:49:04;5.78;;;5.18;;
28335;SDS011;15592;53.656;7.276;2023-07-09T02:51:31;6.00;;;5.40;;
28335;SDS011;15592;53.656;7.276;2023-07-09T02:53:57;6.53;;;5.85;;
28335;SDS011;15592;53.656;7.276;2023-07-09T02:58:52;6.32;;;5.20;;
28335;SDS011;15592;53.656;7.276;2023-07-09T03:01:18;6.32;;;5.57;;
28335;SDS011;15592;53.656;7.276;2023-07-09T03:03:49;5.65;;;5.05;;
28335;SDS011;15592;53.656;7.276;2023-07-09T03:06:22;5.63;;;5.13;;
28335;SDS011;15592;53.656;7.276;2023-07-09T03:08:48;5.78;;;5.25;;
28335;SDS011;15592;53.656;7.276;2023-07-09T03:11:15;6.18;;;5.57;;
28335;SDS011;15592;53.656;7.276;2023-07-09T03:13:41;4.75;;;4.25;;
28335;SDS011;15592;53.656;7.276;2023-07-09T03:16:07;5.07;;;4.47;;
28335;SDS011;15592;53.656;7.276;2023-07-09T03:18:33;4.70;;;4.30;;
28335;SDS011;15592;53.656;7.276;2023-07-09T03:20:58;5.13;;;4.63;;
28335;SDS011;15592;53.656;7.276;2023-07-09T03:23:24;5.25;;;4.75;;
28335;SDS011;15592;53.656;7.276;2023-07-09T03:25:50;5.30;;;4.75;;
28335;SDS011;15592;53.656;7.276;2023-07-09T03:28:16;5.20;;;4.70;;
28335;SDS011;15592;53.656;7.276;2023-07-09T03:30:42;4.93;;;4.43;;
28335;SDS011;15592;53.656;7.276;2023-07-09T03:33:09;5.80;;;5.20;;
28335;SDS011;15592;53.656;7.276;2023-07-09T03:35:35;5.35;;;4.80;;
28335;SDS011;15592;53.656;7.276;2023-07-09T03:38:03;5.50;;;5.00;;
28335;SDS011;15592;53.656;7.276;2023-07-09T03:40:29;5.53;;;4.70;;
28335;SDS011;15592;53.656;7.276;2023-07-09T03:42:55;5.05;;;4.55;;
28335;SDS011;15592;53.656;7.276;2023-07-09T03:45:20;4.63;;;4.22;;
28335;SDS011;15592;53.656;7.276;2023-07-09T03:47:46;4.53;;;4.13;;
28335;SDS011;15592;53.656;7.276;2023-07-09T03:50:12;4.43;;;4.03;;
28335;SDS011;15592;53.656;7.276;2023-07-09T03:52:37;4.50;;;4.10;;
28335;SDS011;15592;53.656;7.276;2023-07-09T03:55:03;4.70;;;4.20;;
28335;SDS011;15592;53.656;7.276;2023-07-09T03:57:29;5.25;;;4.75;;
28335;SDS011;15592;53.656;7.276;2023-07-09T03:59:55;6.07;;;5.28;;
28335;SDS011;15592;53.656;7.276;2023-07-09T04:02:21;5.30;;;4.68;;
28335;SDS011;15592;53.656;7.276;2023-07-09T04:04:47;5.80;;;5.20;;
28335;SDS011;15592;53.656;7.276;2023-07-09T04:07:12;6.70;;;5.45;;
28335;SDS011;15592;53.656;7.276;2023-07-09T04:09:38;6.20;;;5.60;;
28335;SDS011;15592;53.656;7.276;2023-07-09T04:12:04;5.97;;;5.38;;
28335;SDS011;15592;53.656;7.276;2023-07-09T04:14:30;5.88;;;4.97;;
28335;SDS011;15592;53.656;7.276;2023-07-09T04:16:56;5.93;;;5.32;;
28335;SDS011;15592;53.656;7.276;2023-07-09T04:19:22;5.43;;;4.93;;
28335;SDS011;15592;53.656;7.276;2023-07-09T04:21:48;5.63;;;5.10;;
28335;SDS011;15592;53.656;7.276;2023-07-09T04:24:14;5.68;;;5.07;;
28335;SDS011;15592;53.656;7.276;2023-07-09T04:26:42;5.80;;;5.25;;
28335;SDS011;15592;53.656;7.276;2023-07-09T04:29:07;6.03;;;5.43;;
28335;SDS011;15592;53.656;7.276;2023-07-09T04:31:33;6.18;;;5.57;;
28335;SDS011;15592;53.656;7.276;2023-07-09T04:33:58;8.02;;;6.68;;
28335;SDS011;15592;53.656;7.276;2023-07-09T04:36:24;6.82;;;6.13;;
28335;SDS011;15592;53.656;7.276;2023-07-09T04:38:51;6.60;;;5.90;;
28335;SDS011;15592;53.656;7.276;2023-07-09T04:41:16;7.03;;;6.20;;
28335;SDS011;15592;53.656;7.276;2023-07-09T04:43:42;7.18;;;5.80;;
28335;SDS011;15592;53.656;7.276;2023-07-09T04:46:08;6.97;;;5.95;;
28335;SDS011;15592;53.656;7.276;2023-07-09T04:48:33;6.43;;;5.82;;
28335;SDS011;15592;53.656;7.276;2023-07-09T04:50:59;5.95;;;5.35;;
28335;SDS011;15592;53.656;7.276;2023-07-09T04:53:25;6.97;;;5.63;;
28335;SDS011;15592;53.656;7.276;2023-07-09T04:55:51;5.78;;;5.18;;
28335;SDS011;15592;53.656;7.276;2023-07-09T04:58:17;5.78;;;5.25;;
28335;SDS011;15592;53.656;7.276;2023-07-09T05:00:46;5.97;;;5.38;;
28335;SDS011;15592;53.656;7.276;2023-07-09T05:03:11;6.30;;;5.25;;
28335;SDS011;15592;53.656;7.276;2023-07-09T05:05:44;6.35;;;5.72;;
28335;SDS011;15592;53.656;7.276;2023-07-09T05:08:10;6.47;;;5.88;;
28335;SDS011;15592;53.656;7.276;2023-07-09T05:10:40;6.18;;;5.57;;
28335;SDS011;15592;53.656;7.276;2023-07-09T05:13:07;7.57;;;6.53;;
28335;SDS011;15592;53.656;7.276;2023-07-09T05:15:32;6.35;;;5.72;;
28335;SDS011;15592;53.656;7.276;2023-07-09T05:17:58;6.93;;;6.22;;
28335;SDS011;15592;53.656;7.276;2023-07-09T05:20:24;6.75;;;6.05;;
28335;SDS011;15592;53.656;7.276;2023-07-09T05:22:50;6.10;;;5.50;;
28335;SDS011;15592;53.656;7.276;2023-07-09T05:25:15;6.30;;;5.50;;
28335;SDS011;15592;53.656;7.276;2023-07-09T05:27:42;6.22;;;5.63;;
28335;SDS011;15592;53.656;7.276;2023-07-09T05:30:08;6.80;;;6.10;;
28335;SDS011;15592;53.656;7.276;2023-07-09T05:32:34;6.25;;;5.65;;
28335;SDS011;15592;53.656;7.276;2023-07-09T05:35:01;7.13;;;6.43;;
28335;SDS011;15592;53.656;7.276;2023-07-09T05:37:26;6.20;;;5.60;;
28335;SDS011;15592;53.656;7.276;2023-07-09T05:39:52;6.38;;;5.78;;
28335;SDS011;15592;53.656;7.276;2023-07-09T05:42:18;6.10;;;5.50;;
28335;SDS011;15592;53.656;7.276;2023-07-09T05:44:43;5.38;;;4.82;;
28335;SDS011;15592;53.656;7.276;2023-07-09T05:47:09;5.82;;;5.22;;
28335;SDS011;15592;53.656;7.276;2023-07-09T05:49:34;5.65;;;5.15;;
28335;SDS011;15592;53.656;7.276;2023-07-09T05:52:00;5.90;;;5.40;;
28335;SDS011;15592;53.656;7.276;2023-07-09T05:54:26;6.00;;;5.40;;
28335;SDS011;15592;53.656;7.276;2023-07-09T05:56:51;6.05;;;5.30;;
28335;SDS011;15592;53.656;7.276;2023-07-09T05:59:17;6.13;;;5.53;;
28335;SDS011;15592;53.656;7.276;2023-07-09T06:01:42;6.50;;;5.90;;
28335;SDS011;15592;53.656;7.276;2023-07-09T06:04:08;7.00;;;6.20;;
28335;SDS011;15592;53.656;7.276;2023-07-09T06:06:34;7.10;;;6.40;;
28335;SDS011;15592;53.656;7.276;2023-07-09T06:08:59;6.43;;;5.82;;
28335;SDS011;15592;53.656;7.276;2023-07-09T06:11:25;7.15;;;6.45;;
28335;SDS011;15592;53.656;7.276;2023-07-09T06:13:50;7.18;;;6.47;;
28335;SDS011;15592;53.656;7.276;2023-07-09T06:16:17;7.00;;;6.30;;
28335;SDS011;15592;53.656;7.276;2023-07-09T06:18:43;7.20;;;6.50;;
28335;SDS011;15592;53.656;7.276;2023-07-09T06:21:09;6.90;;;6.20;;
28335;SDS011;15592;53.656;7.276;2023-07-09T06:23:36;6.63;;;6.00;;
28335;SDS011;15592;53.656;7.276;2023-07-09T06:26:02;6.30;;;5.70;;
28335;SDS011;15592;53.656;7.276;2023-07-09T06:28:27;6.90;;;6.20;;
28335;SDS011;15592;53.656;7.276;2023-07-09T06:30:54;6.05;;;5.55;;
28335;SDS011;15592;53.656;7.276;2023-07-09T06:33:19;6.57;;;5.97;;
28335;SDS011;15592;53.656;7.276;2023-07-09T06:35:49;7.22;;;6.38;;
28335;SDS011;15592;53.656;7.276;2023-07-09T06:38:16;7.38;;;6.68;;
28335;SDS011;15592;53.656;7.276;2023-07-09T06:40:43;6.97;;;6.28;;
28335;SDS011;15592;53.656;7.276;2023-07-09T06:43:09;7.28;;;6.57;;
28335;SDS011;15592;53.656;7.276;2023-07-09T06:45:35;7.57;;;6.88;;
28335;SDS011;15592;53.656;7.276;2023-07-09T06:48:01;7.85;;;7.00;;
28335;SDS011;15592;53.656;7.276;2023-07-09T06:50:27;8.70;;;7.57;;
28335;SDS011;15592;53.656;7.276;2023-07-09T06:52:53;8.23;;;7.20;;
28335;SDS011;15592;53.656;7.276;2023-07-09T06:55:21;7.78;;;6.97;;
28335;SDS011;15592;53.656;7.276;2023-07-09T06:57:48;9.13;;;7.32;;
28335;SDS011;15592;53.656;7.276;2023-07-09T07:00:14;8.95;;;7.47;;
28335;SDS011;15592;53.656;7.276;2023-07-09T07:02:40;7.93;;;7.13;;
28335;SDS011;15592;53.656;7.276;2023-07-09T07:05:06;7.78;;;6.70;;
28335;SDS011;15592;53.656;7.276;2023-07-09T07:07:31;8.30;;;7.47;;
28335;SDS011;15592;53.656;7.276;2023-07-09T07:09:57;7.97;;;7.18;;
28335;SDS011;15592;53.656;7.276;2023-07-09T07:12:24;7.32;;;6.63;;
28335;SDS011;15592;53.656;7.276;2023-07-09T07:14:53;7.70;;;6.32;;
28335;SDS011;15592;53.656;7.276;2023-07-09T07:17:20;6.78;;;6.18;;
28335;SDS011;15592;53.656;7.276;2023-07-09T07:19:46;7.53;;;6.70;;
28335;SDS011;15592;53.656;7.276;2023-07-09T07:22:13;6.70;;;6.00;;
28335;SDS011;15592;53.656;7.276;2023-07-09T07:24:38;7.57;;;6.72;;
28335;SDS011;15592;53.656;7.276;2023-07-09T07:27:04;6.45;;;5.85;;
28335;SDS011;15592;53.656;7.276;2023-07-09T07:29:30;7.20;;;6.50;;
28335;SDS011;15592;53.656;7.276;2023-07-09T07:31:55;6.50;;;5.90;;
28335;SDS011;15592;53.656;7.276;2023-07-09T07:34:22;7.35;;;6.32;;
28335;SDS011;15592;53.656;7.276;2023-07-09T07:36:49;7.00;;;6.30;;
28335;SDS011;15592;53.656;7.276;2023-07-09T07:39:15;6.50;;;5.85;;
28335;SDS011;15592;53.656;7.276;2023-07-09T07:41:40;7.82;;;6.22;;
28335;SDS011;15592;53.656;7.276;2023-07-09T07:44:06;7.55;;;6.75;;
28335;SDS011;15592;53.656;7.276;2023-07-09T07:46:32;8.70;;;6.95;;
28335;SDS011;15592;53.656;7.276;2023-07-09T07:48:58;7.18;;;6.18;;
28335;SDS011;15592;53.656;7.276;2023-07-09T07:51:25;7.13;;;6.43;;
28335;SDS011;15592;53.656;7.276;2023-07-09T07:53:50;7.50;;;6.40;;
28335;SDS011;15592;53.656;7.276;2023-07-09T07:56:17;6.72;;;6.10;;
28335;SDS011;15592;53.656;7.276;2023-07-09T07:58:43;6.88;;;6.18;;
28335;SDS011;15592;53.656;7.276;2023-07-09T08:01:09;7.25;;;6.55;;
28335;SDS011;15592;53.656;7.276;2023-07-09T08:03:34;7.15;;;6.45;;
28335;SDS011;15592;53.656;7.276;2023-07-09T08:06:00;9.27;;;6.85;;
28335;SDS011;15592;53.656;7.276;2023-07-09T08:08:25;7.32;;;6.40;;
28335;SDS011;15592;53.656;7.276;2023-07-09T08:10:51;7.43;;;6.63;;
28335;SDS011;15592;53.656;7.276;2023-07-09T08:13:24;6.57;;;5.88;;
28335;SDS011;15592;53.656;7.276;2023-07-09T08:15:50;7.13;;;6.43;;
28335;SDS011;15592;53.656;7.276;2023-07-09T08:18:15;7.30;;;6.15;;
28335;SDS011;15592;53.656;7.276;2023-07-09T08:20:44;8.98;;;6.60;;
28335;SDS011;15592;53.656;7.276;2023-07-09T08:23:10;9.18;;;7.47;;
28335;SDS011;15592;53.656;7.276;2023-07-09T08:25:35;6.57;;;5.93;;
28335;SDS011;15592;53.656;7.276;2023-07-09T08:28:01;7.90;;;6.43;;
28335;SDS011;15592;53.656;7.276;2023-07-09T08:30:27;8.73;;;6.05;;
28335;SDS011;15592;53.656;7.276;2023-07-09T08:32:52;6.32;;;5.65;;
28335;SDS011;15592;53.656;7.276;2023-07-09T08:35:20;7.22;;;6.53;;
28335;SDS011;15592;53.656;7.276;2023-07-09T08:37:45;7.25;;;6.43;;
28335;SDS011;15592;53.656;7.276;2023-07-09T08:40:12;7.30;;;6.28;;
28335;SDS011;15592;53.656;7.276;2023-07-09T08:42:42;7.43;;;6.65;;
28335;SDS011;15592;53.656;7.276;2023-07-09T08:50:39;7.43;;;6.10;;
28335;SDS011;15592;53.656;7.276;2023-07-09T08:53:21;7.25;;;6.28;;
28335;SDS011;15592;53.656;7.276;2023-07-09T08:55:56;7.07;;;6.38;;
28335;SDS011;15592;53.656;7.276;2023-07-09T08:58:24;8.23;;;6.75;;
28335;SDS011;15592;53.656;7.276;2023-07-09T09:06:11;7.65;;;6.88;;
28335;SDS011;15592;53.656;7.276;2023-07-09T09:11:52;7.68;;;6.88;;
28335;SDS011;15592;53.656;7.276;2023-07-09T09:16:58;10.30;;;7.65;;
28335;SDS011;15592;53.656;7.276;2023-07-09T09:19:32;9.48;;;7.88;;
28335;SDS011;15592;53.656;7.276;2023-07-09T09:22:09;9.48;;;8.05;;
28335;SDS011;15592;53.656;7.276;2023-07-09T09:24:41;8.48;;;7.57;;
28335;SDS011;15592;53.656;7.276;2023-07-09T09:27:28;9.35;;;7.63;;
28335;SDS011;15592;53.656;7.276;2023-07-09T09:29:54;8.88;;;7.72;;
28335;SDS011;15592;53.656;7.276;2023-07-09T09:32:24;8.77;;;7.53;;
28335;SDS011;15592;53.656;7.276;2023-07-09T09:34:52;9.50;;;7.50;;
28335;SDS011;15592;53.656;7.276;2023-07-09T09:37:31;8.98;;;7.88;;
28335;SDS011;15592;53.656;7.276;2023-07-09T09:39:58;8.63;;;7.65;;
28335;SDS011;15592;53.656;7.276;2023-07-09T09:42:24;8.18;;;7.22;;
28335;SDS011;15592;53.656;7.276;2023-07-09T09:44:52;7.93;;;7.13;;
28335;SDS011;15592;53.656;7.276;2023-07-09T09:47:19;9.18;;;7.43;;
28335;SDS011;15592;53.656;7.276;2023-07-09T09:49:45;9.75;;;7.82;;
28335;SDS011;15592;53.656;7.276;2023-07-09T09:52:14;8.40;;;7.47;;
28335;SDS011;15592;53.656;7.276;2023-07-09T09:54:46;8.15;;;7.13;;
28335;SDS011;15592;53.656;7.276;2023-07-09T09:57:27;8.18;;;7.25;;
28335;SDS011;15592;53.656;7.276;2023-07-09T09:59:53;8.32;;;7.05;;
28335;SDS011;15592;53.656;7.276;2023-07-09T10:02:23;9.27;;;7.35;;
28335;SDS011;15592;53.656;7.276;2023-07-09T10:04:50;8.93;;;7.65;;
28335;SDS011;15592;53.656;7.276;2023-07-09T10:07:21;8.30;;;7.18;;
28335;SDS011;15592;53.656;7.276;2023-07-09T10:09:54;9.30;;;7.70;;
28335;SDS011;15592;53.656;7.276;2023-07-09T10:12:29;9.10;;;7.85;;
28335;SDS011;15592;53.656;7.276;2023-07-09T10:17:53;9.20;;;7.22;;
28335;SDS011;15592;53.656;7.276;2023-07-09T10:20:40;9.27;;;6.80;;
28335;SDS011;15592;53.656;7.276;2023-07-09T10:40:14;8.02;;;6.95;;
28335;SDS011;15592;53.656;7.276;2023-07-09T10:42:49;8.10;;;7.30;;
28335;SDS011;15592;53.656;7.276;2023-07-09T10:45:23;10.07;;;7.22;;
28335;SDS011;15592;53.656;7.276;2023-07-09T10:48:01;8.65;;;7.18;;
28335;SDS011;15592;53.656;7.276;2023-07-09T10:50:33;7.72;;;6.80;;
28335;SDS011;15592;53.656;7.276;2023-07-09T11:01:04;7.90;;;6.65;;
28335;SDS011;15592;53.656;7.276;2023-07-09T11:03:43;7.07;;;6.35;;
28335;SDS011;15592;53.656;7.276;2023-07-09T11:06:34;8.13;;;6.18;;
28335;SDS011;15592;53.656;7.276;2023-07-09T11:09:05;8.50;;;7.38;;
28335;SDS011;15592;53.656;7.276;2023-07-09T11:11:40;11.52;;;9.32;;
28335;SDS011;15592;53.656;7.276;2023-07-09T11:14:25;12.68;;;9.60;;
28335;SDS011;15592;53.656;7.276;2023-07-09T11:16:59;13.15;;;9.98;;
28335;SDS011;15592;53.656;7.276;2023-07-09T11:19:26;11.40;;;9.57;;
28335;SDS011;15592;53.656;7.276;2023-07-09T11:22:14;12.07;;;10.00;;
28335;SDS011;15592;53.656;7.276;2023-07-09T11:27:16;12.75;;;9.70;;
28335;SDS011;15592;53.656;7.276;2023-07-09T11:29:46;13.73;;;10.65;;
28335;SDS011;15592;53.656;7.276;2023-07-09T11:32:21;14.15;;;10.75;;
28335;SDS011;15592;53.656;7.276;2023-07-09T11:34:47;17.52;;;10.25;;
28335;SDS011;15592;53.656;7.276;2023-07-09T11:37:13;15.98;;;10.90;;
28335;SDS011;15592;53.656;7.276;2023-07-09T11:47:24;12.70;;;10.48;;
28335;SDS011;15592;53.656;7.276;2023-07-09T11:50:00;13.88;;;10.82;;
28335;SDS011;15592;53.656;7.276;2023-07-09T11:55:42;19.73;;;12.98;;
28335;SDS011;15592;53.656;7.276;2023-07-09T11:57:55;14.95;;;11.35;;
28335;SDS011;15592;53.656;7.276;2023-07-09T12:00:22;15.48;;;11.18;;
28335;SDS011;15592;53.656;7.276;2023-07-09T12:02:48;12.48;;;10.35;;
28335;SDS011;15592;53.656;7.276;2023-07-09T12:05:17;13.35;;;10.07;;
28335;SDS011;15592;53.656;7.276;2023-07-09T12:07:46;13.32;;;10.27;;
28335;SDS011;15592;53.656;7.276;2023-07-09T12:10:25;15.05;;;10.68;;
28335;SDS011;15592;53.656;7.276;2023-07-09T12:12:54;11.45;;;9.88;;
28335;SDS011;15592;53.656;7.276;2023-07-09T12:15:22;13.68;;;11.05;;
28335;SDS011;15592;53.656;7.276;2023-07-09T12:17:54;14.05;;;10.30;;
28335;SDS011;15592;53.656;7.276;2023-07-09T12:20:34;13.02;;;10.55;;
28335;SDS011;15592;53.656;7.276;2023-07-09T12:23:09;12.48;;;9.38;;
28335;SDS011;15592;53.656;7.276;2023-07-09T12:25:51;12.07;;;9.40;;
28335;SDS011;15592;53.656;7.276;2023-07-09T12:28:18;11.45;;;9.90;;
28335;SDS011;15592;53.656;7.276;2023-07-09T12:30:48;12.55;;;10.27;;
28335;SDS011;15592;53.656;7.276;2023-07-09T12:33:16;14.20;;;11.32;;
28335;SDS011;15592;53.656;7.276;2023-07-09T12:35:43;12.88;;;10.35;;
28335;SDS011;15592;53.656;7.276;2023-07-09T12:38:15;11.85;;;9.73;;
28335;SDS011;15592;53.656;7.276;2023-07-09T12:40:47;12.15;;;9.75;;
28335;SDS011;15592;53.656;7.276;2023-07-09T12:43:15;12.65;;;10.57;;
28335;SDS011;15592;53.656;7.276;2023-07-09T12:45:47;16.25;;;10.07;;
28335;SDS011;15592;53.656;7.276;2023-07-09T12:48:13;14.80;;;11.38;;
28335;SDS011;15592;53.656;7.276;2023-07-09T12:50:39;16.33;;;11.20;;
28335;SDS011;15592;53.656;7.276;2023-07-09T12:53:15;14.18;;;11.77;;
28335;SDS011;15592;53.656;7.276;2023-07-09T12:55:44;14.95;;;11.02;;
28335;SDS011;15592;53.656;7.276;2023-07-09T12:58:18;13.43;;;10.60;;
28335;SDS011;15592;53.656;7.276;2023-07-09T13:00:48;14.73;;;10.85;;
28335;SDS011;15592;53.656;7.276;2023-07-09T13:03:24;19.33;;;12.05;;
28335;SDS011;15592;53.656;7.276;2023-07-09T13:05:59;11.52;;;9.98;;
28335;SDS011;15592;53.656;7.276;2023-07-09T13:08:27;13.27;;;10.30;;
28335;SDS011;15592;53.656;7.276;2023-07-09T13:10:54;12.50;;;10.25;;
28335;SDS011;15592;53.656;7.276;2023-07-09T13:13:21;14.35;;;10.18;;
28335;SDS011;15592;53.656;7.276;2023-07-09T13:15:51;12.30;;;10.30;;
28335;SDS011;15592;53.656;7.276;2023-07-09T13:18:26;13.98;;;10.65;;
28335;SDS011;15592;53.656;7.276;2023-07-09T13:20:53;15.40;;;10.70;;
28335;SDS011;15592;53.656;7.276;2023-07-09T13:23:24;11.30;;;9.60;;
28335;SDS011;15592;53.656;7.276;2023-07-09T13:25:52;12.40;;;10.60;;
28335;SDS011;15592;53.656;7.276;2023-07-09T13:28:23;17.23;;;10.50;;
28335;SDS011;15592;53.656;7.276;2023-07-09T13:33:23;12.45;;;10.63;;
28335;SDS011;15592;53.656;7.276;2023-07-09T13:35:49;14.10;;;10.35;;
28335;SDS011;15592;53.656;7.276;2023-07-09T13:38:17;14.05;;;10.43;;
28335;SDS011;15592;53.656;7.276;2023-07-09T13:40:46;13.32;;;10.50;;
28335;SDS011;15592;53.656;7.276;2023-07-09T13:43:35;13.82;;;11.07;;
28335;SDS011;15592;53.656;7.276;2023-07-09T13:46:00;13.27;;;11.05;;
28335;SDS011;15592;53.656;7.276;2023-07-09T13:48:28;13.68;;;10.55;;
28335;SDS011;15592;53.656;7.276;2023-07-09T13:50:56;15.25;;;11.45;;
28335;SDS011;15592;53.656;7.276;2023-07-09T13:53:27;14.52;;;11.00;;
28335;SDS011;15592;53.656;7.276;2023-07-09T13:55:55;15.48;;;12.07;;
28335;SDS011;15592;53.656;7.276;2023-07-09T13:58:21;15.45;;;11.25;;
28335;SDS011;15592;53.656;7.276;2023-07-09T14:00:50;11.82;;;10.02;;
28335;SDS011;15592;53.656;7.276;2023-07-09T14:03:25;14.45;;;11.57;;
28335;SDS011;15592;53.656;7.276;2023-07-09T14:05:52;13.02;;;10.68;;
28335;SDS011;15592;53.656;7.276;2023-07-09T14:08:18;15.25;;;11.10;;
28335;SDS011;15592;53.656;7.276;2023-07-09T14:10:45;14.48;;;10.95;;
28335;SDS011;15592;53.656;7.276;2023-07-09T14:13:14;16.25;;;10.75;;
28335;SDS011;15592;53.656;7.276;2023-07-09T14:15:42;13.57;;;10.60;;
28335;SDS011;15592;53.656;7.276;2023-07-09T14:18:12;13.07;;;10.00;;
28335;SDS011;15592;53.656;7.276;2023-07-09T14:20:40;14.52;;;10.38;;
28335;SDS011;15592;53.656;7.276;2023-07-09T14:23:08;11.60;;;10.40;;
28335;SDS011;15592;53.656;7.276;2023-07-09T14:25:37;10.88;;;9.57;;
28335;SDS011;15592;53.656;7.276;2023-07-09T14:28:16;10.63;;;9.52;;
28335;SDS011;15592;53.656;7.276;2023-07-09T14:30:44;13.43;;;10.18;;
28335;SDS011;15592;53.656;7.276;2023-07-09T14:33:12;13.15;;;10.43;;
28335;SDS011;15592;53.656;7.276;2023-07-09T14:35:46;12.43;;;9.73;;
28335;SDS011;15592;53.656;7.276;2023-07-09T14:38:17;11.73;;;8.60;;
28335;SDS011;15592;53.656;7.276;2023-07-09T14:40:47;14.68;;;9.73;;
28335;SDS011;15592;53.656;7.276;2023-07-09T14:43:15;13.85;;;9.52;;
28335;SDS011;15592;53.656;7.276;2023-07-09T14:45:41;13.30;;;10.50;;
28335;SDS011;15592;53.656;7.276;2023-07-09T14:48:14;14.45;;;10.55;;
28335;SDS011;15592;53.656;7.276;2023-07-09T14:50:41;14.20;;;9.57;;
28335;SDS011;15592;53.656;7.276;2023-07-09T14:55:47;14.25;;;10.13;;
28335;SDS011;15592;53.656;7.276;2023-07-09T14:58:14;13.57;;;10.25;;
28335;SDS011;15592;53.656;7.276;2023-07-09T15:00:42;15.20;;;10.75;;
28335;SDS011;15592;53.656;7.276;2023-07-09T15:03:09;10.88;;;9.57;;
28335;SDS011;15592;53.656;7.276;2023-07-09T15:05:36;11.75;;;10.27;;
28335;SDS011;15592;53.656;7.276;2023-07-09T15:08:15;11.73;;;9.90;;
28335;SDS011;15592;53.656;7.276;2023-07-09T15:10:42;11.23;;;9.52;;
28335;SDS011;15592;53.656;7.276;2023-07-09T15:13:51;13.05;;;10.35;;
28335;SDS011;15592;53.656;7.276;2023-07-09T15:15:59;12.40;;;10.25;;
28335;SDS011;15592;53.656;7.276;2023-07-09T15:18:26;12.38;;;10.25;;
28335;SDS011;15592;53.656;7.276;2023-07-09T15:20:56;12.18;;;10.88;;
28335;SDS011;15592;53.656;7.276;2023-07-09T15:23:24;11.05;;;10.00;;
28335;SDS011;15592;53.656;7.276;2023-07-09T15:25:50;12.43;;;10.35;;
28335;SDS011;15592;53.656;7.276;2023-07-09T15:28:16;11.40;;;10.20;;
28335;SDS011;15592;53.656;7.276;2023-07-09T15:30:43;10.73;;;9.57;;
28335;SDS011;15592;53.656;7.276;2023-07-09T15:33:12;14.35;;;11.00;;
28335;SDS011;15592;53.656;7.276;2023-07-09T15:35:40;12.50;;;11.25;;
28335;SDS011;15592;53.656;7.276;2023-07-09T15:38:27;12.00;;;10.27;;
28335;SDS011;15592;53.656;7.276;2023-07-09T15:40:54;13.68;;;11.30;;
28335;SDS011;15592;53.656;7.276;2023-07-09T15:43:20;13.60;;;11.70;;
28335;SDS011;15592;53.656;7.276;2023-07-09T15:45:46;12.60;;;10.95;;
28335;SDS011;15592;53.656;7.276;2023-07-09T15:48:24;12.45;;;10.40;;
28335;SDS011;15592;53.656;7.276;2023-07-09T15:50:52;10.55;;;9.45;;
28335;SDS011;15592;53.656;7.276;2023-07-09T15:53:21;10.20;;;9.23;;
28335;SDS011;15592;53.656;7.276;2023-07-09T15:55:47;10.50;;;9.40;;
28335;SDS011;15592;53.656;7.276;2023-07-09T15:58:19;10.45;;;9.35;;